sensor_id;sensor_type;location;lat;lon;timestamp;P1;durP1;ratioP1;P2;durP2;ratioP2
72728;SDS011;60843;52.062;4.508;2023-10-13T00:00:32;0.00;;;0.00;;
72728;SDS011;60843;52.062;4.508;2023-10-13T00:03:07;0.00;;;0.00;;
72728;SDS011;60843;52.062;4.508;2023-10-13T00:05:40;0.00;;;0.00;;
72728;SDS011;60843;52.062;4.508;2023-10-13T00:08:06;0.00;;;0.00;;
72728;SDS011;60843;52.062;4.508;2023-10-13T00:10:33;0.00;;;0.00;;
72728;SDS011;60843;52.062;4.508;2023-10-13T00:12:58;0.05;;;0.05;;
72728;SDS011;60843;52.062;4.508;2023-10-13T00:15:41;0.00;;;0.00;;
72728;SDS011;60843;52.062;4.508;2023-10-13T00:18:32;0.00;;;0.00;;
72728;SDS011;60843;52.062;4.508;2023-10-13T00:21:07;0.10;;;0.10;;
72728;SDS011;60843;52.062;4.508;2023-10-13T00:23:52;0.00;;;0.00;;
72728;SDS011;60843;52.062;4.508;2023-10-13T00:26:18;0.00;;;0.00;;
72728;SDS011;60843;52.062;4.508;2023-10-13T00:28:48;0.00;;;0.00;;
72728;SDS011;60843;52.062;4.508;2023-10-13T00:31:23;0.00;;;0.00;;
72728;SDS011;60843;52.062;4.508;2023-10-13T00:34:04;0.00;;;0.00;;
72728;SDS011;60843;52.062;4.508;2023-10-13T00:36:45;0.03;;;0.03;;
72728;SDS011;60843;52.062;4.508;2023-10-13T00:39:28;0.00;;;0.00;;
72728;SDS011;60843;52.062;4.508;2023-10-13T00:41:54;0.00;;;0.00;;
72728;SDS011;60843;52.062;4.508;2023-10-13T00:44:31;0.00;;;0.00;;
72728;SDS011;60843;52.062;4.508;2023-10-13T00:47:06;0.00;;;0.00;;
72728;SDS011;60843;52.062;4.508;2023-10-13T00:49:35;0.08;;;0.08;;
72728;SDS011;60843;52.062;4.508;2023-10-13T00:52:08;0.00;;;0.00;;
72728;SDS011;60843;52.062;4.508;2023-10-13T00:54:36;0.00;;;0.00;;
72728;SDS011;60843;52.062;4.508;2023-10-13T00:57:03;0.00;;;0.00;;
72728;SDS011;60843;52.062;4.508;2023-10-13T00:59:51;0.00;;;0.00;;
72728;SDS011;60843;52.062;4.508;2023-10-13T01:02:21;0.10;;;0.10;;
72728;SDS011;60843;52.062;4.508;2023-10-13T01:05:05;0.03;;;0.03;;
72728;SDS011;60843;52.062;4.508;2023-10-13T01:07:35;0.00;;;0.00;;
72728;SDS011;60843;52.062;4.508;2023-10-13T01:10:04;0.00;;;0.00;;
72728;SDS011;60843;52.062;4.508;2023-10-13T01:12:30;0.00;;;0.00;;
72728;SDS011;60843;52.062;4.508;2023-10-13T01:14:59;0.20;;;0.20;;
72728;SDS011;60843;52.062;4.508;2023-10-13T01:17:24;0.00;;;0.00;;
72728;SDS011;60843;52.062;4.508;2023-10-13T01:19:56;0.98;;;0.20;;
72728;SDS011;60843;52.062;4.508;2023-10-13T01:22:23;0.00;;;0.00;;
72728;SDS011;60843;52.062;4.508;2023-10-13T01:24:49;0.00;;;0.00;;
72728;SDS011;60843;52.062;4.508;2023-10-13T01:27:16;0.00;;;0.00;;
72728;SDS011;60843;52.062;4.508;2023-10-13T01:29:50;0.10;;;0.10;;
72728;SDS011;60843;52.062;4.508;2023-10-13T01:32:21;0.00;;;0.00;;
72728;SDS011;60843;52.062;4.508;2023-10-13T01:34:51;0.10;;;0.10;;
72728;SDS011;60843;52.062;4.508;2023-10-13T01:37:21;0.00;;;0.00;;
72728;SDS011;60843;52.062;4.508;2023-10-13T01:39:47;0.00;;;0.00;;
72728;SDS011;60843;52.062;4.508;2023-10-13T01:42:14;0.00;;;0.00;;
72728;SDS011;60843;52.062;4.508;2023-10-13T01:44:44;0.00;;;0.00;;
72728;SDS011;60843;52.062;4.508;2023-10-13T01:47:10;0.00;;;0.00;;
72728;SDS011;60843;52.062;4.508;2023-10-13T01:49:37;0.00;;;0.00;;
72728;SDS011;60843;52.062;4.508;2023-10-13T01:52:23;0.00;;;0.00;;
72728;SDS011;60843;52.062;4.508;2023-10-13T01:54:52;0.00;;;0.00;;
72728;SDS011;60843;52.062;4.508;2023-10-13T01:57:19;0.00;;;0.00;;
72728;SDS011;60843;52.062;4.508;2023-10-13T01:59:49;0.00;;;0.00;;
72728;SDS011;60843;52.062;4.508;2023-10-13T02:02:15;0.00;;;0.00;;
72728;SDS011;60843;52.062;4.508;2023-10-13T02:04:44;0.00;;;0.00;;
72728;SDS011;60843;52.062;4.508;2023-10-13T02:07:22;0.00;;;0.00;;
72728;SDS011;60843;52.062;4.508;2023-10-13T02:09:52;0.00;;;0.00;;
72728;SDS011;60843;52.062;4.508;2023-10-13T02:12:19;0.00;;;0.00;;
72728;SDS011;60843;52.062;4.508;2023-10-13T02:14:51;0.00;;;0.00;;
72728;SDS011;60843;52.062;4.508;2023-10-13T02:17:16;0.00;;;0.00;;
72728;SDS011;60843;52.062;4.508;2023-10-13T02:19:46;0.00;;;0.00;;
72728;SDS011;60843;52.062;4.508;2023-10-13T02:22:12;0.00;;;0.00;;
72728;SDS011;60843;52.062;4.508;2023-10-13T02:27:18;0.00;;;0.00;;
72728;SDS011;60843;52.062;4.508;2023-10-13T02:29:49;0.00;;;0.00;;
72728;SDS011;60843;52.062;4.508;2023-10-13T02:32:14;0.00;;;0.00;;
72728;SDS011;60843;52.062;4.508;2023-10-13T02:34:46;0.00;;;0.00;;
72728;SDS011;60843;52.062;4.508;2023-10-13T02:37:11;0.00;;;0.00;;
72728;SDS011;60843;52.062;4.508;2023-10-13T02:39:38;0.00;;;0.00;;
72728;SDS011;60843;52.062;4.508;2023-10-13T02:42:10;0.00;;;0.00;;
72728;SDS011;60843;52.062;4.508;2023-10-13T02:44:48;0.40;;;0.40;;
72728;SDS011;60843;52.062;4.508;2023-10-13T02:47:14;0.00;;;0.00;;
72728;SDS011;60843;52.062;4.508;2023-10-13T02:49:40;0.00;;;0.00;;
72728;SDS011;60843;52.062;4.508;2023-10-13T02:52:09;0.00;;;0.00;;
72728;SDS011;60843;52.062;4.508;2023-10-13T02:54:35;0.00;;;0.00;;
72728;SDS011;60843;52.062;4.508;2023-10-13T02:57:16;0.00;;;0.00;;
72728;SDS011;60843;52.062;4.508;2023-10-13T02:59:42;0.00;;;0.00;;
72728;SDS011;60843;52.062;4.508;2023-10-13T03:02:23;0.00;;;0.00;;
72728;SDS011;60843;52.062;4.508;2023-10-13T03:04:55;1.13;;;0.38;;
72728;SDS011;60843;52.062;4.508;2023-10-13T03:07:27;0.05;;;0.05;;
72728;SDS011;60843;52.062;4.508;2023-10-13T03:09:56;0.00;;;0.00;;
72728;SDS011;60843;52.062;4.508;2023-10-13T03:12:34;0.00;;;0.00;;
72728;SDS011;60843;52.062;4.508;2023-10-13T03:15:01;0.00;;;0.00;;
72728;SDS011;60843;52.062;4.508;2023-10-13T03:17:42;0.00;;;0.00;;
72728;SDS011;60843;52.062;4.508;2023-10-13T03:20:16;0.00;;;0.00;;
72728;SDS011;60843;52.062;4.508;2023-10-13T03:22:52;0.00;;;0.00;;
72728;SDS011;60843;52.062;4.508;2023-10-13T03:25:18;0.00;;;0.00;;
72728;SDS011;60843;52.062;4.508;2023-10-13T03:28:02;0.00;;;0.00;;
72728;SDS011;60843;52.062;4.508;2023-10-13T03:30:30;0.00;;;0.00;;
72728;SDS011;60843;52.062;4.508;2023-10-13T03:33:07;0.00;;;0.00;;
72728;SDS011;60843;52.062;4.508;2023-10-13T03:35:39;0.00;;;0.00;;
72728;SDS011;60843;52.062;4.508;2023-10-13T03:38:11;0.00;;;0.00;;
72728;SDS011;60843;52.062;4.508;2023-10-13T03:40:42;0.00;;;0.00;;
72728;SDS011;60843;52.062;4.508;2023-10-13T03:43:21;0.10;;;0.00;;
72728;SDS011;60843;52.062;4.508;2023-10-13T03:45:48;0.00;;;0.00;;
72728;SDS011;60843;52.062;4.508;2023-10-13T03:48:18;0.00;;;0.00;;
72728;SDS011;60843;52.062;4.508;2023-10-13T03:50:50;0.00;;;0.00;;
72728;SDS011;60843;52.062;4.508;2023-10-13T03:53:31;0.10;;;0.10;;
72728;SDS011;60843;52.062;4.508;2023-10-13T03:56:05;0.00;;;0.00;;
72728;SDS011;60843;52.062;4.508;2023-10-13T03:58:37;0.00;;;0.00;;
72728;SDS011;60843;52.062;4.508;2023-10-13T04:01:12;0.00;;;0.00;;
72728;SDS011;60843;52.062;4.508;2023-10-13T04:03:41;0.00;;;0.00;;
72728;SDS011;60843;52.062;4.508;2023-10-13T04:06:24;0.00;;;0.00;;
72728;SDS011;60843;52.062;4.508;2023-10-13T04:09:16;0.00;;;0.00;;
72728;SDS011;60843;52.062;4.508;2023-10-13T04:12:02;0.00;;;0.00;;
72728;SDS011;60843;52.062;4.508;2023-10-13T04:14:31;0.00;;;0.00;;
72728;SDS011;60843;52.062;4.508;2023-10-13T04:17:17;0.00;;;0.00;;
72728;SDS011;60843;52.062;4.508;2023-10-13T04:19:50;0.00;;;0.00;;
72728;SDS011;60843;52.062;4.508;2023-10-13T04:22:32;0.10;;;0.10;;
72728;SDS011;60843;52.062;4.508;2023-10-13T04:25:19;0.00;;;0.00;;
72728;SDS011;60843;52.062;4.508;2023-10-13T04:30:41;0.00;;;0.00;;
72728;SDS011;60843;52.062;4.508;2023-10-13T04:33:20;0.00;;;0.00;;
72728;SDS011;60843;52.062;4.508;2023-10-13T04:36:10;0.10;;;0.10;;
72728;SDS011;60843;52.062;4.508;2023-10-13T04:38:53;0.00;;;0.00;;
72728;SDS011;60843;52.062;4.508;2023-10-13T04:41:30;0.20;;;0.10;;
72728;SDS011;60843;52.062;4.508;2023-10-13T04:44:22;0.00;;;0.00;;
72728;SDS011;60843;52.062;4.508;2023-10-13T04:46:55;0.98;;;0.35;;
72728;SDS011;60843;52.062;4.508;2023-10-13T04:49:24;0.08;;;0.08;;
72728;SDS011;60843;52.062;4.508;2023-10-13T04:52:10;0.52;;;0.52;;
72728;SDS011;60843;52.062;4.508;2023-10-13T04:54:36;0.00;;;0.00;;
72728;SDS011;60843;52.062;4.508;2023-10-13T04:57:35;0.00;;;0.00;;
72728;SDS011;60843;52.062;4.508;2023-10-13T05:00:12;0.00;;;0.00;;
72728;SDS011;60843;52.062;4.508;2023-10-13T05:02:45;0.03;;;0.03;;
72728;SDS011;60843;52.062;4.508;2023-10-13T05:05:26;0.00;;;0.00;;
72728;SDS011;60843;52.062;4.508;2023-10-13T05:08:30;0.13;;;0.10;;
72728;SDS011;60843;52.062;4.508;2023-10-13T05:11:14;0.03;;;0.03;;
72728;SDS011;60843;52.062;4.508;2023-10-13T05:14:00;0.00;;;0.00;;
72728;SDS011;60843;52.062;4.508;2023-10-13T05:16:44;3.95;;;0.85;;
72728;SDS011;60843;52.062;4.508;2023-10-13T05:19:28;0.00;;;0.00;;
72728;SDS011;60843;52.062;4.508;2023-10-13T05:22:12;0.00;;;0.00;;
72728;SDS011;60843;52.062;4.508;2023-10-13T05:24:56;0.20;;;0.08;;
72728;SDS011;60843;52.062;4.508;2023-10-13T05:27:40;0.00;;;0.00;;
72728;SDS011;60843;52.062;4.508;2023-10-13T05:30:24;0.40;;;0.40;;
72728;SDS011;60843;52.062;4.508;2023-10-13T05:33:08;0.00;;;0.00;;
72728;SDS011;60843;52.062;4.508;2023-10-13T05:35:52;0.32;;;0.22;;
72728;SDS011;60843;52.062;4.508;2023-10-13T05:38:37;0.20;;;0.20;;
72728;SDS011;60843;52.062;4.508;2023-10-13T05:41:21;0.00;;;0.00;;
72728;SDS011;60843;52.062;4.508;2023-10-13T05:44:06;0.00;;;0.00;;
72728;SDS011;60843;52.062;4.508;2023-10-13T05:46:58;0.00;;;0.00;;
72728;SDS011;60843;52.062;4.508;2023-10-13T05:49:37;0.00;;;0.00;;
72728;SDS011;60843;52.062;4.508;2023-10-13T05:52:15;0.00;;;0.00;;
72728;SDS011;60843;52.062;4.508;2023-10-13T05:55:05;0.00;;;0.00;;
72728;SDS011;60843;52.062;4.508;2023-10-13T05:57:49;0.00;;;0.00;;
72728;SDS011;60843;52.062;4.508;2023-10-13T06:00:37;0.00;;;0.00;;
72728;SDS011;60843;52.062;4.508;2023-10-13T06:03:22;0.00;;;0.00;;
72728;SDS011;60843;52.062;4.508;2023-10-13T06:06:06;0.00;;;0.00;;
72728;SDS011;60843;52.062;4.508;2023-10-13T06:08:50;0.00;;;0.00;;
72728;SDS011;60843;52.062;4.508;2023-10-13T06:11:34;0.00;;;0.00;;
72728;SDS011;60843;52.062;4.508;2023-10-13T06:14:18;0.20;;;0.05;;
72728;SDS011;60843;52.062;4.508;2023-10-13T06:17:03;0.00;;;0.00;;
72728;SDS011;60843;52.062;4.508;2023-10-13T06:19:47;0.00;;;0.00;;
72728;SDS011;60843;52.062;4.508;2023-10-13T06:22:31;0.00;;;0.00;;
72728;SDS011;60843;52.062;4.508;2023-10-13T06:25:15;0.00;;;0.00;;
72728;SDS011;60843;52.062;4.508;2023-10-13T06:27:59;0.00;;;0.00;;
72728;SDS011;60843;52.062;4.508;2023-10-13T06:30:52;0.00;;;0.00;;
72728;SDS011;60843;52.062;4.508;2023-10-13T06:33:21;0.00;;;0.00;;
72728;SDS011;60843;52.062;4.508;2023-10-13T06:35:49;0.00;;;0.00;;
72728;SDS011;60843;52.062;4.508;2023-10-13T06:38:15;0.10;;;0.10;;
72728;SDS011;60843;52.062;4.508;2023-10-13T06:40:46;0.10;;;0.10;;
72728;SDS011;60843;52.062;4.508;2023-10-13T06:43:13;0.20;;;0.20;;
72728;SDS011;60843;52.062;4.508;2023-10-13T06:45:45;0.00;;;0.00;;
72728;SDS011;60843;52.062;4.508;2023-10-13T06:48:23;0.10;;;0.10;;
72728;SDS011;60843;52.062;4.508;2023-10-13T06:50:51;0.00;;;0.00;;
72728;SDS011;60843;52.062;4.508;2023-10-13T06:53:18;0.00;;;0.00;;
72728;SDS011;60843;52.062;4.508;2023-10-13T06:55:44;0.00;;;0.00;;
72728;SDS011;60843;52.062;4.508;2023-10-13T06:58:12;0.05;;;0.05;;
72728;SDS011;60843;52.062;4.508;2023-10-13T07:00:39;1.08;;;0.20;;
72728;SDS011;60843;52.062;4.508;2023-10-13T07:03:18;0.00;;;0.00;;
72728;SDS011;60843;52.062;4.508;2023-10-13T07:05:47;0.63;;;0.40;;
72728;SDS011;60843;52.062;4.508;2023-10-13T07:08:12;0.05;;;0.05;;
72728;SDS011;60843;52.062;4.508;2023-10-13T07:10:52;0.00;;;0.00;;
72728;SDS011;60843;52.062;4.508;2023-10-13T07:13:30;1.15;;;0.25;;
72728;SDS011;60843;52.062;4.508;2023-10-13T07:15:56;0.13;;;0.08;;
72728;SDS011;60843;52.062;4.508;2023-10-13T07:18:33;0.10;;;0.10;;
72728;SDS011;60843;52.062;4.508;2023-10-13T07:21:08;0.00;;;0.00;;
72728;SDS011;60843;52.062;4.508;2023-10-13T07:23:37;0.10;;;0.10;;
72728;SDS011;60843;52.062;4.508;2023-10-13T07:26:03;0.00;;;0.00;;
72728;SDS011;60843;52.062;4.508;2023-10-13T07:28:30;0.20;;;0.20;;
72728;SDS011;60843;52.062;4.508;2023-10-13T07:30:56;0.13;;;0.13;;
72728;SDS011;60843;52.062;4.508;2023-10-13T07:33:24;0.15;;;0.15;;
72728;SDS011;60843;52.062;4.508;2023-10-13T07:36:02;0.00;;;0.00;;
72728;SDS011;60843;52.062;4.508;2023-10-13T07:38:40;0.20;;;0.20;;
72728;SDS011;60843;52.062;4.508;2023-10-13T07:41:07;0.00;;;0.00;;
72728;SDS011;60843;52.062;4.508;2023-10-13T07:43:33;3.85;;;0.20;;
72728;SDS011;60843;52.062;4.508;2023-10-13T07:45:59;0.05;;;0.00;;
72728;SDS011;60843;52.062;4.508;2023-10-13T07:48:25;0.10;;;0.10;;
72728;SDS011;60843;52.062;4.508;2023-10-13T07:51:04;0.43;;;0.10;;
72728;SDS011;60843;52.062;4.508;2023-10-13T07:53:33;0.40;;;0.22;;
72728;SDS011;60843;52.062;4.508;2023-10-13T07:56:05;0.70;;;0.70;;
72728;SDS011;60843;52.062;4.508;2023-10-13T08:00:59;0.00;;;0.00;;
72728;SDS011;60843;52.062;4.508;2023-10-13T08:03:24;0.00;;;0.00;;
72728;SDS011;60843;52.062;4.508;2023-10-13T08:06:08;0.60;;;0.17;;
72728;SDS011;60843;52.062;4.508;2023-10-13T08:08:37;0.00;;;0.00;;
72728;SDS011;60843;52.062;4.508;2023-10-13T08:11:07;0.00;;;0.00;;
72728;SDS011;60843;52.062;4.508;2023-10-13T08:13:38;0.00;;;0.00;;
72728;SDS011;60843;52.062;4.508;2023-10-13T08:16:11;0.13;;;0.13;;
72728;SDS011;60843;52.062;4.508;2023-10-13T08:18:46;0.08;;;0.08;;
72728;SDS011;60843;52.062;4.508;2023-10-13T08:21:18;0.10;;;0.10;;
72728;SDS011;60843;52.062;4.508;2023-10-13T08:23:51;1.10;;;0.60;;
72728;SDS011;60843;52.062;4.508;2023-10-13T08:26:20;0.13;;;0.13;;
72728;SDS011;60843;52.062;4.508;2023-10-13T08:29:04;0.10;;;0.10;;
72728;SDS011;60843;52.062;4.508;2023-10-13T08:31:48;0.00;;;0.00;;
72728;SDS011;60843;52.062;4.508;2023-10-13T08:34:39;0.00;;;0.00;;
72728;SDS011;60843;52.062;4.508;2023-10-13T08:37:07;0.03;;;0.03;;
72728;SDS011;60843;52.062;4.508;2023-10-13T08:39:54;0.10;;;0.10;;
72728;SDS011;60843;52.062;4.508;2023-10-13T08:42:25;0.47;;;0.17;;
72728;SDS011;60843;52.062;4.508;2023-10-13T08:45:08;0.03;;;0.03;;
72728;SDS011;60843;52.062;4.508;2023-10-13T08:47:46;0.90;;;0.45;;
72728;SDS011;60843;52.062;4.508;2023-10-13T08:50:19;2.22;;;0.52;;
72728;SDS011;60843;52.062;4.508;2023-10-13T08:53:05;0.10;;;0.10;;
72728;SDS011;60843;52.062;4.508;2023-10-13T08:58:46;0.22;;;0.10;;
72728;SDS011;60843;52.062;4.508;2023-10-13T09:01:19;0.00;;;0.00;;
72728;SDS011;60843;52.062;4.508;2023-10-13T09:04:08;0.20;;;0.20;;
72728;SDS011;60843;52.062;4.508;2023-10-13T09:06:44;0.15;;;0.13;;
72728;SDS011;60843;52.062;4.508;2023-10-13T09:09:54;0.10;;;0.10;;
72728;SDS011;60843;52.062;4.508;2023-10-13T09:12:20;0.30;;;0.30;;
72728;SDS011;60843;52.062;4.508;2023-10-13T09:14:59;6.03;;;0.43;;
72728;SDS011;60843;52.062;4.508;2023-10-13T09:20:32;0.28;;;0.28;;
72728;SDS011;60843;52.062;4.508;2023-10-13T09:23:10;0.10;;;0.10;;
72728;SDS011;60843;52.062;4.508;2023-10-13T09:25:38;0.00;;;0.00;;
72728;SDS011;60843;52.062;4.508;2023-10-13T09:28:18;0.32;;;0.10;;
72728;SDS011;60843;52.062;4.508;2023-10-13T09:30:56;0.68;;;0.68;;
72728;SDS011;60843;52.062;4.508;2023-10-13T09:33:26;0.68;;;0.68;;
72728;SDS011;60843;52.062;4.508;2023-10-13T09:35:58;0.20;;;0.10;;
72728;SDS011;60843;52.062;4.508;2023-10-13T09:38:25;0.45;;;0.45;;
72728;SDS011;60843;52.062;4.508;2023-10-13T09:40:52;0.10;;;0.10;;
72728;SDS011;60843;52.062;4.508;2023-10-13T09:43:22;0.08;;;0.08;;
72728;SDS011;60843;52.062;4.508;2023-10-13T09:45:48;0.00;;;0.00;;
72728;SDS011;60843;52.062;4.508;2023-10-13T09:48:40;0.00;;;0.00;;
72728;SDS011;60843;52.062;4.508;2023-10-13T09:51:15;0.28;;;0.28;;
72728;SDS011;60843;52.062;4.508;2023-10-13T09:54:04;0.10;;;0.10;;
72728;SDS011;60843;52.062;4.508;2023-10-13T09:56:42;0.03;;;0.03;;
72728;SDS011;60843;52.062;4.508;2023-10-13T09:59:31;0.00;;;0.00;;
72728;SDS011;60843;52.062;4.508;2023-10-13T10:02:05;0.00;;;0.00;;
72728;SDS011;60843;52.062;4.508;2023-10-13T10:04:34;2.05;;;0.90;;
72728;SDS011;60843;52.062;4.508;2023-10-13T10:07:23;0.82;;;0.80;;
72728;SDS011;60843;52.062;4.508;2023-10-13T10:10:01;0.13;;;0.13;;
72728;SDS011;60843;52.062;4.508;2023-10-13T10:20:50;0.35;;;0.35;;
72728;SDS011;60843;52.062;4.508;2023-10-13T10:23:24;0.13;;;0.13;;
72728;SDS011;60843;52.062;4.508;2023-10-13T10:25:51;0.35;;;0.35;;
72728;SDS011;60843;52.062;4.508;2023-10-13T10:28:17;0.10;;;0.10;;
72728;SDS011;60843;52.062;4.508;2023-10-13T10:30:44;0.13;;;0.13;;
72728;SDS011;60843;52.062;4.508;2023-10-13T10:33:11;12.82;;;3.63;;
72728;SDS011;60843;52.062;4.508;2023-10-13T10:35:46;8.25;;;3.47;;
72728;SDS011;60843;52.062;4.508;2023-10-13T10:38:16;8.82;;;3.53;;
72728;SDS011;60843;52.062;4.508;2023-10-13T10:43:37;13.38;;;3.70;;
72728;SDS011;60843;52.062;4.508;2023-10-13T10:46:18;13.43;;;3.47;;
72728;SDS011;60843;52.062;4.508;2023-10-13T10:48:52;12.30;;;3.90;;
72728;SDS011;60843;52.062;4.508;2023-10-13T10:51:21;14.57;;;4.00;;
72728;SDS011;60843;52.062;4.508;2023-10-13T10:53:51;14.43;;;4.15;;
72728;SDS011;60843;52.062;4.508;2023-10-13T10:56:18;6.57;;;3.28;;
72728;SDS011;60843;52.062;4.508;2023-10-13T10:59:01;13.25;;;3.88;;
72728;SDS011;60843;52.062;4.508;2023-10-13T11:01:30;10.80;;;3.50;;
72728;SDS011;60843;52.062;4.508;2023-10-13T11:04:03;9.70;;;3.42;;
72728;SDS011;60843;52.062;4.508;2023-10-13T11:06:37;12.23;;;3.88;;
72728;SDS011;60843;52.062;4.508;2023-10-13T11:09:10;12.73;;;4.85;;
72728;SDS011;60843;52.062;4.508;2023-10-13T11:11:52;12.90;;;3.10;;
72728;SDS011;60843;52.062;4.508;2023-10-13T11:14:26;10.35;;;3.47;;
72728;SDS011;60843;52.062;4.508;2023-10-13T11:16:52;10.93;;;3.60;;
72728;SDS011;60843;52.062;4.508;2023-10-13T11:19:20;9.73;;;3.63;;
72728;SDS011;60843;52.062;4.508;2023-10-13T11:24:39;9.60;;;3.67;;
72728;SDS011;60843;52.062;4.508;2023-10-13T11:27:14;12.38;;;4.53;;
72728;SDS011;60843;52.062;4.508;2023-10-13T11:30:02;10.30;;;3.42;;
72728;SDS011;60843;52.062;4.508;2023-10-13T11:32:30;12.43;;;4.30;;
72728;SDS011;60843;52.062;4.508;2023-10-13T11:34:56;9.93;;;4.13;;
72728;SDS011;60843;52.062;4.508;2023-10-13T11:37:21;12.30;;;4.18;;
72728;SDS011;60843;52.062;4.508;2023-10-13T11:40:16;11.60;;;3.05;;
72728;SDS011;60843;52.062;4.508;2023-10-13T11:43:01;10.93;;;3.15;;
72728;SDS011;60843;52.062;4.508;2023-10-13T11:45:27;13.18;;;3.38;;
72728;SDS011;60843;52.062;4.508;2023-10-13T11:48:00;10.23;;;3.42;;
72728;SDS011;60843;52.062;4.508;2023-10-13T11:50:26;11.30;;;3.08;;
72728;SDS011;60843;52.062;4.508;2023-10-13T11:52:58;10.95;;;3.38;;
72728;SDS011;60843;52.062;4.508;2023-10-13T11:55:23;12.90;;;3.22;;
72728;SDS011;60843;52.062;4.508;2023-10-13T11:57:50;12.93;;;3.40;;
72728;SDS011;60843;52.062;4.508;2023-10-13T12:00:16;10.48;;;2.75;;
72728;SDS011;60843;52.062;4.508;2023-10-13T12:02:52;12.27;;;3.90;;
72728;SDS011;60843;52.062;4.508;2023-10-13T12:05:36;12.75;;;3.70;;
72728;SDS011;60843;52.062;4.508;2023-10-13T12:08:14;10.73;;;3.53;;
72728;SDS011;60843;52.062;4.508;2023-10-13T12:10:46;10.85;;;3.65;;
72728;SDS011;60843;52.062;4.508;2023-10-13T12:13:24;11.18;;;3.28;;
72728;SDS011;60843;52.062;4.508;2023-10-13T12:15:50;10.45;;;3.33;;
72728;SDS011;60843;52.062;4.508;2023-10-13T12:18:17;18.92;;;3.78;;
72728;SDS011;60843;52.062;4.508;2023-10-13T12:20:44;13.10;;;3.28;;
72728;SDS011;60843;52.062;4.508;2023-10-13T12:23:14;8.60;;;3.55;;
72728;SDS011;60843;52.062;4.508;2023-10-13T12:25:44;5.03;;;2.65;;
72728;SDS011;60843;52.062;4.508;2023-10-13T12:28:20;10.02;;;3.47;;
72728;SDS011;60843;52.062;4.508;2023-10-13T12:30:48;11.52;;;3.45;;
72728;SDS011;60843;52.062;4.508;2023-10-13T12:33:15;10.95;;;3.28;;
72728;SDS011;60843;52.062;4.508;2023-10-13T12:35:49;8.75;;;3.47;;
72728;SDS011;60843;52.062;4.508;2023-10-13T12:38:38;11.40;;;3.28;;
72728;SDS011;60843;52.062;4.508;2023-10-13T12:41:04;18.05;;;4.43;;
72728;SDS011;60843;52.062;4.508;2023-10-13T12:43:49;26.35;;;5.55;;
72728;SDS011;60843;52.062;4.508;2023-10-13T12:46:35;8.98;;;2.92;;
72728;SDS011;60843;52.062;4.508;2023-10-13T12:49:19;13.32;;;3.42;;
72728;SDS011;60843;52.062;4.508;2023-10-13T12:52:13;9.60;;;4.10;;
72728;SDS011;60843;52.062;4.508;2023-10-13T12:54:42;10.18;;;3.63;;
72728;SDS011;60843;52.062;4.508;2023-10-13T12:57:15;17.65;;;3.80;;
72728;SDS011;60843;52.062;4.508;2023-10-13T12:59:41;11.73;;;3.33;;
72728;SDS011;60843;52.062;4.508;2023-10-13T13:02:07;11.70;;;4.30;;
72728;SDS011;60843;52.062;4.508;2023-10-13T13:04:39;9.68;;;3.83;;
72728;SDS011;60843;52.062;4.508;2023-10-13T13:07:09;10.07;;;3.47;;
72728;SDS011;60843;52.062;4.508;2023-10-13T13:09:39;12.55;;;3.85;;
72728;SDS011;60843;52.062;4.508;2023-10-13T13:12:05;12.15;;;3.88;;
72728;SDS011;60843;52.062;4.508;2023-10-13T13:14:31;15.07;;;3.67;;
72728;SDS011;60843;52.062;4.508;2023-10-13T13:16:59;13.40;;;3.63;;
72728;SDS011;60843;52.062;4.508;2023-10-13T13:19:30;13.43;;;3.78;;
72728;SDS011;60843;52.062;4.508;2023-10-13T13:22:01;10.32;;;3.72;;
72728;SDS011;60843;52.062;4.508;2023-10-13T13:24:30;9.27;;;3.65;;
72728;SDS011;60843;52.062;4.508;2023-10-13T13:26:56;9.38;;;3.50;;
72728;SDS011;60843;52.062;4.508;2023-10-13T13:29:27;10.00;;;3.40;;
72728;SDS011;60843;52.062;4.508;2023-10-13T13:31:54;10.48;;;3.42;;
72728;SDS011;60843;52.062;4.508;2023-10-13T13:34:20;9.82;;;4.00;;
72728;SDS011;60843;52.062;4.508;2023-10-13T13:36:46;19.10;;;4.00;;
72728;SDS011;60843;52.062;4.508;2023-10-13T13:39:17;15.88;;;4.00;;
72728;SDS011;60843;52.062;4.508;2023-10-13T13:41:54;15.30;;;4.60;;
72728;SDS011;60843;52.062;4.508;2023-10-13T13:44:24;14.13;;;4.63;;
72728;SDS011;60843;52.062;4.508;2023-10-13T13:46:57;12.60;;;4.18;;
72728;SDS011;60843;52.062;4.508;2023-10-13T13:49:23;11.85;;;3.88;;
72728;SDS011;60843;52.062;4.508;2023-10-13T13:51:55;14.85;;;4.18;;
72728;SDS011;60843;52.062;4.508;2023-10-13T13:54:21;15.20;;;5.07;;
72728;SDS011;60843;52.062;4.508;2023-10-13T13:56:47;10.50;;;3.90;;
72728;SDS011;60843;52.062;4.508;2023-10-13T13:59:13;12.95;;;4.63;;
72728;SDS011;60843;52.062;4.508;2023-10-13T14:01:41;16.27;;;4.10;;
72728;SDS011;60843;52.062;4.508;2023-10-13T14:04:09;15.57;;;4.50;;
72728;SDS011;60843;52.062;4.508;2023-10-13T14:06:35;12.55;;;4.47;;
72728;SDS011;60843;52.062;4.508;2023-10-13T14:09:00;10.98;;;4.32;;
72728;SDS011;60843;52.062;4.508;2023-10-13T14:11:30;16.52;;;4.90;;
72728;SDS011;60843;52.062;4.508;2023-10-13T14:14:02;9.90;;;4.72;;
72728;SDS011;60843;52.062;4.508;2023-10-13T14:16:37;8.82;;;3.83;;
72728;SDS011;60843;52.062;4.508;2023-10-13T14:19:12;8.18;;;3.47;;
72728;SDS011;60843;52.062;4.508;2023-10-13T14:21:44;10.68;;;2.80;;
72728;SDS011;60843;52.062;4.508;2023-10-13T14:24:09;6.78;;;2.17;;
72728;SDS011;60843;52.062;4.508;2023-10-13T14:26:39;8.68;;;2.50;;
72728;SDS011;60843;52.062;4.508;2023-10-13T14:29:05;10.43;;;2.13;;
72728;SDS011;60843;52.062;4.508;2023-10-13T14:31:33;7.25;;;1.27;;
72728;SDS011;60843;52.062;4.508;2023-10-13T14:34:01;5.32;;;1.15;;
72728;SDS011;60843;52.062;4.508;2023-10-13T14:36:27;13.85;;;1.88;;
72728;SDS011;60843;52.062;4.508;2023-10-13T14:38:59;7.10;;;1.85;;
72728;SDS011;60843;52.062;4.508;2023-10-13T14:41:26;8.90;;;1.80;;
72728;SDS011;60843;52.062;4.508;2023-10-13T14:43:51;10.88;;;2.40;;
72728;SDS011;60843;52.062;4.508;2023-10-13T14:46:17;9.10;;;2.30;;
72728;SDS011;60843;52.062;4.508;2023-10-13T14:48:43;11.40;;;2.83;;
72728;SDS011;60843;52.062;4.508;2023-10-13T14:51:12;11.88;;;3.20;;
72728;SDS011;60843;52.062;4.508;2023-10-13T14:53:44;8.38;;;3.50;;
72728;SDS011;60843;52.062;4.508;2023-10-13T14:56:10;15.50;;;3.85;;
72728;SDS011;60843;52.062;4.508;2023-10-13T14:58:39;17.08;;;4.80;;
72728;SDS011;60843;52.062;4.508;2023-10-13T15:03:42;17.08;;;4.18;;
72728;SDS011;60843;52.062;4.508;2023-10-13T15:06:14;16.35;;;4.28;;
72728;SDS011;60843;52.062;4.508;2023-10-13T15:08:43;16.08;;;4.60;;
72728;SDS011;60843;52.062;4.508;2023-10-13T15:11:14;17.35;;;5.18;;
72728;SDS011;60843;52.062;4.508;2023-10-13T15:13:43;14.80;;;4.70;;
72728;SDS011;60843;52.062;4.508;2023-10-13T15:16:15;20.73;;;6.35;;
72728;SDS011;60843;52.062;4.508;2023-10-13T15:18:52;20.02;;;4.63;;
72728;SDS011;60843;52.062;4.508;2023-10-13T15:21:18;23.55;;;5.47;;
72728;SDS011;60843;52.062;4.508;2023-10-13T15:23:47;18.90;;;4.93;;
72728;SDS011;60843;52.062;4.508;2023-10-13T15:26:13;14.02;;;4.88;;
72728;SDS011;60843;52.062;4.508;2023-10-13T15:28:40;17.27;;;5.20;;
72728;SDS011;60843;52.062;4.508;2023-10-13T15:31:18;20.92;;;6.68;;
72728;SDS011;60843;52.062;4.508;2023-10-13T15:33:58;17.88;;;5.22;;
72728;SDS011;60843;52.062;4.508;2023-10-13T15:36:24;24.40;;;5.35;;
72728;SDS011;60843;52.062;4.508;2023-10-13T15:38:52;18.92;;;5.30;;
72728;SDS011;60843;52.062;4.508;2023-10-13T15:41:22;22.33;;;4.90;;
72728;SDS011;60843;52.062;4.508;2023-10-13T15:43:48;21.05;;;6.00;;
72728;SDS011;60843;52.062;4.508;2023-10-13T15:46:17;25.83;;;5.47;;
72728;SDS011;60843;52.062;4.508;2023-10-13T15:48:43;20.05;;;5.22;;
72728;SDS011;60843;52.062;4.508;2023-10-13T15:51:11;16.50;;;4.78;;